Time;durP1;ratioP1;P1;durP2;ratioP2;P2;SDS_P1;SDS_P2;PMS_P1;PMS_P2;Temp;Humidity;BMP_temperature;BMP_pressure;BME280_temperature;BME280_humidity;BME280_pressure;Samples;Min_cycle;Max_cycle;Signal;HPM_P1;HPM_P2
2022/01/02 00:00:24;;;;;;;5.20;3.15;;;;;;;19.14;40.65;100118.88;5132458;27;20043;-64
2022/01/02 00:02:52;;;;;;;4.95;2.83;;;;;;;19.13;40.64;100127.53;5132627;27;20187;-55
2022/01/02 00:05:21;;;;;;;4.85;2.90;;;;;;;19.11;40.57;100119.56;5132458;27;20499;-64
2022/01/02 00:08:03;;;;;;;5.25;2.92;;;;;;;19.11;40.82;100121.53;5132365;27;20035;-64
2022/01/02 00:10:47;;;;;;;4.68;3.00;;;;;;;19.10;40.70;100123.50;5132274;27;20039;-64
2022/01/02 00:13:29;;;;;;;4.47;2.95;;;;;;;19.10;40.69;100108.84;5132167;27;20047;-64
2022/01/02 00:15:56;;;;;;;5.07;2.80;;;;;;;19.10;40.52;100106.88;5132285;27;20078;-64
2022/01/02 00:18:26;;;;;;;6.05;3.08;;;;;;;19.09;40.85;100116.34;5132331;27;20057;-64
2022/01/02 00:20:52;;;;;;;4.47;3.05;;;;;;;19.09;40.56;100113.56;5132017;27;20083;-64
2022/01/02 00:23:29;;;;;;;5.47;3.22;;;;;;;19.07;40.65;100106.75;5132034;27;20050;-64
2022/01/02 00:25:55;;;;;;;4.53;2.83;;;;;;;19.10;40.61;100108.84;5131377;27;20051;-55
2022/01/02 00:28:21;;;;;;;4.90;3.05;;;;;;;19.10;40.71;100106.06;5131831;27;20103;-55
2022/01/02 00:30:48;;;;;;;4.38;2.83;;;;;;;19.11;40.62;100097.41;5131885;27;20129;-55
2022/01/02 00:33:14;;;;;;;4.40;2.83;;;;;;;19.10;40.47;100104.09;5131962;27;20091;-55
2022/01/02 00:35:39;;;;;;;4.07;2.67;;;;;;;19.10;40.48;100109.66;5131943;27;20047;-55
2022/01/02 00:38:06;;;;;;;4.28;2.60;;;;;;;19.07;40.43;100102.00;5132085;27;20399;-55
2022/01/02 00:40:40;;;;;;;4.72;2.92;;;;;;;19.07;40.67;100098.41;5130523;28;20039;-55
2022/01/02 00:43:13;;;;;;;5.53;3.00;;;;;;;19.08;40.31;100092.56;5131872;27;20043;-55
2022/01/02 00:45:45;;;;;;;4.07;2.70;;;;;;;19.07;40.58;100090.91;5131978;27;20100;-55
2022/01/02 00:48:15;;;;;;;4.82;2.92;;;;;;;19.07;40.37;100095.66;5131697;27;20039;-55
2022/01/02 00:50:52;;;;;;;4.03;2.67;;;;;;;19.06;40.56;100089.28;5131609;27;20051;-55
2022/01/02 00:53:24;;;;;;;5.28;2.95;;;;;;;19.06;40.46;100094.84;5131681;27;20510;-55
2022/01/02 00:55:56;;;;;;;4.47;2.78;;;;;;;19.06;40.75;100096.81;5131606;27;20074;-55
2022/01/02 00:58:29;;;;;;;5.03;2.95;;;;;;;19.07;40.64;100090.91;5131744;27;20047;-55
2022/01/02 01:00:59;;;;;;;4.40;2.72;;;;;;;19.08;40.50;100098.09;5131622;27;20051;-55
2022/01/02 01:03:30;;;;;;;5.30;3.20;;;;;;;19.09;40.70;100088.63;5131658;27;20043;-55
2022/01/02 01:05:57;;;;;;;4.07;2.72;;;;;;;19.07;40.33;100079.81;5131483;27;20096;-55
2022/01/02 01:08:23;;;;;;;4.55;2.80;;;;;;;19.06;40.64;100078.22;5131532;27;20047;-55
2022/01/02 01:10:49;;;;;;;4.40;2.72;;;;;;;19.05;40.41;100073.00;5131162;27;20050;-55
2022/01/02 01:13:16;;;;;;;4.63;2.50;;;;;;;19.05;40.42;100076.59;5131305;27;20053;-55
2022/01/02 01:15:42;;;;;;;4.53;2.97;;;;;;;19.02;40.42;100071.75;5131243;27;20123;-55
2022/01/02 01:18:08;;;;;;;4.88;2.75;;;;;;;19.07;40.72;100084.56;5131118;28;20525;-55
2022/01/02 01:20:40;;;;;;;4.10;2.70;;;;;;;19.06;40.47;100086.53;5131172;27;20055;-63
2022/01/02 01:23:07;;;;;;;4.90;2.92;;;;;;;19.06;40.29;100088.50;5131169;27;20555;-64
2022/01/02 01:25:33;;;;;;;4.00;2.40;;;;;;;19.04;40.33;100080.53;5131042;27;20396;-64
2022/01/02 01:28:00;;;;;;;4.50;2.75;;;;;;;19.05;40.45;100078.56;5131218;27;20615;-64
2022/01/02 01:30:27;;;;;;;4.35;2.80;;;;;;;19.05;40.39;100070.25;5131397;27;20039;-64
2022/01/02 01:32:53;;;;;;;4.18;2.67;;;;;;;19.05;40.48;100070.25;5130877;27;20047;-64
2022/01/02 01:35:20;;;;;;;4.72;2.60;;;;;;;19.05;40.71;100073.81;5130783;27;20078;-55
2022/01/02 01:37:45;;;;;;;5.03;2.80;;;;;;;19.04;40.16;100074.19;5130996;27;20047;-55
2022/01/02 01:40:12;;;;;;;4.38;2.53;;;;;;;19.05;40.24;100087.69;5130969;28;20441;-64
2022/01/02 01:42:42;;;;;;;4.25;2.65;;;;;;;19.07;40.60;100090.09;5130861;27;20111;-64
2022/01/02 01:47:45;;;;;;;4.35;2.80;;;;;;;19.04;40.41;100091.63;5131006;27;20054;-64
2022/01/02 01:50:10;;;;;;;4.90;2.92;;;;;;;19.04;40.26;100097.16;5130729;27;20139;-64
2022/01/02 01:52:36;;;;;;;4.38;2.70;;;;;;;19.04;40.21;100102.72;5130829;27;20188;-64
2022/01/02 01:55:01;;;;;;;4.75;3.00;;;;;;;19.04;40.12;100099.13;5130433;28;20070;-64
2022/01/02 01:57:27;;;;;;;4.45;2.85;;;;;;;19.04;40.24;100091.63;5130550;27;20047;-64
2022/01/02 01:59:52;;;;;;;5.25;3.00;;;;;;;19.04;40.33;100094.38;5130444;28;20046;-64
2022/01/02 02:02:18;;;;;;;4.82;3.13;;;;;;;19.04;40.21;100090.81;5130640;28;20039;-64
2022/01/02 02:04:43;;;;;;;5.15;3.22;;;;;;;19.05;40.12;100100.75;5130849;27;20039;-64
2022/01/02 02:07:09;;;;;;;4.65;2.90;;;;;;;19.05;40.08;100093.22;5130622;27;20047;-64
2022/01/02 02:12:14;;;;;;;4.10;2.97;;;;;;;19.04;40.35;100086.06;5130463;28;20103;-64
2022/01/02 02:14:40;;;;;;;5.05;3.10;;;;;;;19.03;40.49;100084.47;5130521;27;20055;-64
2022/01/02 02:17:06;;;;;;;4.43;2.95;;;;;;;19.04;40.26;100088.84;5130400;28;20047;-64
2022/01/02 02:19:31;;;;;;;4.53;2.92;;;;;;;19.06;40.34;100082.94;5130523;28;20046;-64
2022/01/02 02:21:57;;;;;;;4.32;2.97;;;;;;;19.04;40.33;100082.50;5130388;27;20440;-64
2022/01/02 02:24:22;;;;;;;5.57;3.50;;;;;;;19.04;40.43;100088.84;5130393;28;20035;-64
2022/01/02 02:26:48;;;;;;;4.95;3.42;;;;;;;19.04;40.24;100079.72;5130365;27;20129;-64
2022/01/02 02:29:13;;;;;;;5.20;3.30;;;;;;;19.03;40.27;100075.34;5130132;28;20069;-64
2022/01/02 02:31:41;;;;;;;4.40;3.08;;;;;;;19.03;40.18;100073.38;5130188;27;20090;-64
2022/01/02 02:34:06;;;;;;;6.03;3.20;;;;;;;19.04;40.10;100069.44;5130416;27;20043;-63
2022/01/02 02:36:31;;;;;;;4.15;2.97;;;;;;;19.04;40.17;100068.63;5130362;28;20035;-63
2022/01/02 02:38:57;;;;;;;5.30;3.53;;;;;;;19.04;40.23;100074.97;5130349;28;20465;-64
2022/01/02 02:41:23;;;;;;;5.38;3.50;;;;;;;19.04;39.93;100069.44;5130188;28;20421;-63
2022/01/02 02:44:00;;;;;;;5.30;3.20;;;;;;;19.04;40.01;100069.44;5130270;27;20108;-64
2022/01/02 02:49:09;;;;;;;5.28;3.30;;;;;;;19.04;40.23;100063.88;5133346;28;20131;-55
2022/01/02 02:54:25;;;;;;;4.68;2.83;;;;;;;19.05;40.24;100070.25;5133668;28;20100;-55
2022/01/02 02:56:56;;;;;;;5.25;3.50;;;;;;;19.04;40.25;100069.44;5133417;27;20406;-55
2022/01/02 02:59:32;;;;;;;5.07;3.40;;;;;;;19.04;40.12;100072.22;5133776;27;20047;-55
2022/01/02 03:01:59;;;;;;;4.90;3.40;;;;;;;19.03;40.03;100067.81;5133600;27;20075;-55
2022/01/02 03:04:25;;;;;;;5.63;3.10;;;;;;;19.02;40.33;100063.44;5133504;27;20054;-55
2022/01/02 03:06:51;;;;;;;4.85;3.13;;;;;;;19.04;40.09;100061.13;5133506;27;20058;-55
2022/01/02 03:09:32;;;;;;;4.80;2.75;;;;;;;19.05;40.20;100059.97;5133422;27;20116;-55
2022/01/02 03:11:58;;;;;;;5.65;3.42;;;;;;;19.06;40.11;100055.22;5133280;27;20123;-55
2022/01/02 03:14:23;;;;;;;4.88;3.00;;;;;;;19.07;40.03;100057.63;5133389;28;20434;-55
2022/01/02 03:16:48;;;;;;;5.13;3.30;;;;;;;19.06;40.28;100056.03;5133105;28;20035;-56
2022/01/02 03:19:14;;;;;;;5.13;2.88;;;;;;;19.07;40.31;100062.38;5133156;28;20042;-55
2022/01/02 03:21:39;;;;;;;5.45;3.10;;;;;;;19.06;39.96;100064.34;5133180;28;20090;-55
2022/01/02 03:24:05;;;;;;;5.30;3.08;;;;;;;19.06;39.69;100063.53;5131927;28;20471;-55
2022/01/02 03:26:30;;;;;;;5.38;3.33;;;;;;;19.08;39.97;100058.47;5133006;28;20047;-55
2022/01/02 03:28:56;;;;;;;5.57;3.10;;;;;;;19.05;40.14;100059.97;5132852;27;20051;-55
2022/01/02 03:31:21;;;;;;;4.53;3.10;;;;;;;19.06;40.02;100060.75;5133159;27;20039;-55
2022/01/02 03:33:46;;;;;;;4.03;2.78;;;;;;;19.06;40.02;100058.81;5133040;28;20043;-55
2022/01/02 03:36:12;;;;;;;4.68;3.05;;;;;;;19.04;39.84;100052.81;5132999;28;20418;-55
2022/01/02 03:38:37;;;;;;;4.50;2.90;;;;;;;19.04;39.81;100050.03;5132865;27;20047;-55
2022/01/02 03:41:03;;;;;;;5.43;3.20;;;;;;;19.04;40.10;100057.53;5133021;28;20050;-55
2022/01/02 03:43:28;;;;;;;6.18;3.28;;;;;;;19.04;39.89;100052.81;5133021;27;20047;-55
2022/01/02 03:45:53;;;;;;;5.38;3.50;;;;;;;19.05;39.84;100048.06;5132782;28;20495;-64
2022/01/02 03:48:19;;;;;;;5.03;3.20;;;;;;;19.05;39.80;100048.88;5132381;27;20092;-55
2022/01/02 03:50:44;;;;;;;4.63;2.92;;;;;;;19.04;39.92;100046.44;5132704;27;20478;-55
2022/01/02 03:53:10;;;;;;;5.00;3.40;;;;;;;19.03;39.89;100040.09;5132526;28;20047;-55
2022/01/02 03:55:35;;;;;;;4.95;3.40;;;;;;;19.03;39.89;100036.53;5132824;27;20418;-55
2022/01/02 03:58:03;;;;;;;5.57;3.38;;;;;;;19.01;39.63;100034.09;5132626;27;20046;-55
2022/01/02 04:00:28;;;;;;;6.78;3.70;;;;;;;18.98;40.03;100029.22;5131172;27;20043;-55
2022/01/02 04:02:54;;;;;;;4.43;3.15;;;;;;;19.02;40.19;100030.16;5132548;28;20046;-55
2022/01/02 04:05:19;;;;;;;6.20;3.40;;;;;;;19.02;39.86;100035.72;5132668;27;20431;-55
2022/01/02 04:07:46;;;;;;;5.85;3.50;;;;;;;19.03;39.73;100042.88;5132363;27;20126;-55
2022/01/02 04:10:14;;;;;;;6.45;3.80;;;;;;;19.02;39.81;100032.94;5132149;27;20051;-55
2022/01/02 04:12:40;;;;;;;6.40;3.40;;;;;;;19.03;39.75;100033.75;5132242;27;20043;-55
2022/01/02 04:15:08;;;;;;;5.38;3.25;;;;;;;19.02;39.71;100032.94;5132365;27;20063;-64
2022/01/02 04:17:35;;;;;;;5.05;3.22;;;;;;;19.01;39.96;100025.78;5132466;27;20092;-64
2022/01/02 04:20:03;;;;;;;5.20;3.60;;;;;;;19.02;39.70;100016.31;5132424;27;20043;-64
2022/01/02 04:22:29;;;;;;;5.80;3.53;;;;;;;19.01;39.63;100024.97;5131972;27;20051;-64
2022/01/02 04:24:54;;;;;;;5.15;3.58;;;;;;;19.03;40.03;100029.00;5130976;28;20047;-64
2022/01/02 04:27:21;;;;;;;5.53;3.35;;;;;;;19.03;39.94;100028.19;5132250;27;20051;-64
2022/01/02 04:29:47;;;;;;;5.82;3.53;;;;;;;19.03;39.56;100029.00;5131974;27;20460;-64
2022/01/02 04:32:15;;;;;;;5.97;3.40;;;;;;;19.01;39.90;100019.44;5131892;27;20499;-64
2022/01/02 04:34:41;;;;;;;5.05;3.25;;;;;;;19.04;39.70;100027.84;5131997;27;20052;-64
2022/01/02 04:37:07;;;;;;;6.30;3.75;;;;;;;19.18;38.88;100016.41;5131989;28;20116;-64
2022/01/02 04:39:33;;;;;;;4.95;3.40;;;;;;;20.59;36.71;100013.28;5131955;27;20433;-64
2022/01/02 04:41:59;;;;;;;4.75;3.22;;;;;;;20.41;36.81;100022.28;5131613;27;20051;-63
2022/01/02 04:44:25;;;;;;;5.95;3.50;;;;;;;20.11;37.62;100011.59;5132013;27;20043;-64
2022/01/02 04:46:51;;;;;;;4.70;3.40;;;;;;;19.92;38.19;100011.44;5131678;27;20058;-64
2022/01/02 04:49:16;;;;;;;5.18;3.40;;;;;;;19.75;38.44;100013.38;5117980;28;20036;-64
2022/01/02 04:51:42;;;;;;;5.35;3.50;;;;;;;19.62;38.34;100022.91;5111160;28;20134;-64
2022/01/02 04:54:07;;;;;;;6.03;3.83;;;;;;;19.50;38.46;100025.69;5111141;28;20123;-64
2022/01/02 04:56:33;;;;;;;5.70;3.72;;;;;;;19.44;38.82;100033.47;5111255;28;20044;-64
2022/01/02 04:58:58;;;;;;;6.03;3.75;;;;;;;19.40;38.93;100024.22;5111170;28;20043;-64
2022/01/02 05:01:24;;;;;;;5.93;3.70;;;;;;;19.32;39.26;100032.66;5111401;28;20075;-55
2022/01/02 05:03:49;;;;;;;7.03;3.95;;;;;;;19.28;38.82;100035.31;5111136;28;20052;-55
2022/01/02 05:06:14;;;;;;;5.07;3.60;;;;;;;19.24;39.34;100034.41;5110926;28;20047;-64
2022/01/02 05:08:44;;;;;;;6.22;3.72;;;;;;;19.23;39.05;100041.94;5111025;28;20445;-64
2022/01/02 05:11:10;;;;;;;7.10;3.95;;;;;;;19.16;39.16;100038.94;5110313;28;20048;-55
2022/01/02 05:13:35;;;;;;;5.35;3.63;;;;;;;19.19;38.96;100054.06;5110783;28;20036;-55
2022/01/02 05:16:01;;;;;;;5.95;3.70;;;;;;;19.17;39.44;100062.72;5110754;28;20071;-55
2022/01/02 05:18:26;;;;;;;5.90;3.75;;;;;;;19.14;39.00;100068.97;5110604;28;20052;-56
2022/01/02 05:20:51;;;;;;;6.38;3.67;;;;;;;19.14;39.35;100066.19;5110645;28;20385;-55
2022/01/02 05:23:18;;;;;;;5.18;3.78;;;;;;;19.13;39.35;100075.66;5110960;28;20130;-64
2022/01/02 05:25:45;;;;;;;6.97;3.88;;;;;;;19.12;39.20;100081.56;5110542;28;20069;-64
2022/01/02 05:28:10;;;;;;;6.03;3.60;;;;;;;19.12;39.54;100087.09;5110428;28;20040;-64
2022/01/02 05:30:36;;;;;;;5.53;3.20;;;;;;;19.10;39.26;100089.44;5110596;28;20046;-64
2022/01/02 05:33:02;;;;;;;6.28;3.97;;;;;;;19.09;39.68;100093.38;5110562;28;20101;-64
2022/01/02 05:35:27;;;;;;;6.00;4.20;;;;;;;19.11;39.20;100097.41;5129223;27;20438;-64
2022/01/02 05:37:52;;;;;;;6.25;3.47;;;;;;;19.08;39.25;100100.88;5131191;27;20047;-64
2022/01/02 05:40:18;;;;;;;5.65;3.95;;;;;;;19.09;39.13;100101.69;5130984;27;20047;-64
2022/01/02 05:42:43;;;;;;;5.93;3.88;;;;;;;19.08;39.49;100097.28;5131044;28;20055;-64
2022/01/02 05:45:09;;;;;;;7.97;4.75;;;;;;;19.08;39.33;100094.53;5130852;27;20037;-64
2022/01/02 05:47:37;;;;;;;6.55;4.07;;;;;;;19.05;39.11;100086.88;5131079;27;20448;-62
2022/01/02 05:50:03;;;;;;;6.78;3.78;;;;;;;19.05;39.28;100092.41;5130808;27;20058;-55
2022/01/02 05:52:31;;;;;;;5.63;3.72;;;;;;;19.06;39.13;100096.81;5130583;27;20125;-55
2022/01/02 05:54:56;;;;;;;6.20;4.10;;;;;;;19.09;39.65;100090.59;5130464;27;20193;-55
2022/01/02 05:57:21;;;;;;;5.85;3.53;;;;;;;19.08;39.36;100100.88;5130660;27;20513;-55
2022/01/02 05:59:47;;;;;;;5.97;3.55;;;;;;;19.08;39.16;100098.09;5130631;27;20062;-55
2022/01/02 06:02:12;;;;;;;6.25;3.80;;;;;;;19.07;39.12;100110.31;5130492;27;20600;-55
2022/01/02 06:04:38;;;;;;;5.07;3.25;;;;;;;19.07;39.45;100092.88;5130436;27;20479;-55
2022/01/02 06:07:04;;;;;;;6.63;4.22;;;;;;;19.04;39.23;100108.25;5130840;27;20123;-55
2022/01/02 06:09:30;;;;;;;7.10;4.38;;;;;;;19.06;38.91;100105.13;5130376;27;20100;-55
2022/01/02 06:11:55;;;;;;;5.75;3.78;;;;;;;19.05;39.02;100096.00;5130337;27;20035;-55
2022/01/02 06:14:20;;;;;;;5.80;3.90;;;;;;;19.06;39.18;100096.81;5130367;27;20407;-64
2022/01/02 06:16:46;;;;;;;6.63;3.80;;;;;;;19.05;38.94;100086.88;5130406;28;20043;-64
2022/01/02 06:19:11;;;;;;;6.53;4.05;;;;;;;19.05;39.19;100093.22;5130505;27;20050;-64
2022/01/02 06:21:37;;;;;;;6.70;3.92;;;;;;;19.04;38.81;100099.13;5130576;27;20043;-64
2022/01/02 06:24:02;;;;;;;6.25;4.22;;;;;;;19.03;39.11;100091.97;5133506;27;20051;-64
2022/01/02 06:26:27;;;;;;;5.78;3.55;;;;;;;19.04;39.05;100086.06;5134167;27;20035;-64
2022/01/02 06:28:53;;;;;;;6.10;4.13;;;;;;;19.04;38.91;100094.38;5134401;27;20039;-65
2022/01/02 06:31:18;;;;;;;6.18;4.20;;;;;;;19.04;39.10;100094.38;5134218;27;20046;-64
2022/01/02 06:33:44;;;;;;;5.75;4.07;;;;;;;19.02;38.77;100085.63;5134312;27;20039;-65
2022/01/02 06:36:09;;;;;;;5.18;3.58;;;;;;;19.04;39.09;100090.81;5134231;27;20410;-64
2022/01/02 06:38:34;;;;;;;6.10;3.72;;;;;;;19.03;38.81;100084.47;5133997;27;20047;-64
2022/01/02 06:41:00;;;;;;;5.60;3.65;;;;;;;19.02;39.15;100088.38;5133775;27;20391;-64
2022/01/02 06:43:25;;;;;;;6.00;4.07;;;;;;;19.02;38.86;100088.38;5133842;27;20043;-64
2022/01/02 06:45:51;;;;;;;4.78;3.45;;;;;;;19.02;39.00;100093.13;5133841;28;20036;-64
2022/01/02 06:48:16;;;;;;;5.40;3.38;;;;;;;19.03;39.06;100086.44;5133343;27;20058;-64
2022/01/02 06:50:42;;;;;;;5.38;3.80;;;;;;;19.02;38.98;100093.13;5133426;27;20046;-64
2022/01/02 06:53:08;;;;;;;6.47;3.83;;;;;;;19.04;38.93;100090.81;5133651;27;20134;-55
2022/01/02 06:55:33;;;;;;;5.50;3.75;;;;;;;19.01;38.75;100089.56;5133649;27;20046;-64
2022/01/02 06:57:59;;;;;;;5.65;3.53;;;;;;;19.02;39.01;100093.94;5133519;27;20427;-64
2022/01/02 07:00:24;;;;;;;5.82;3.80;;;;;;;19.02;39.06;100096.72;5133415;27;20043;-55
2022/01/02 07:02:50;;;;;;;6.13;3.95;;;;;;;19.01;39.26;100084.00;5133539;27;20043;-55
2022/01/02 07:05:15;;;;;;;5.95;3.90;;;;;;;19.00;38.85;100085.13;5133347;27;20039;-55
2022/01/02 07:07:42;;;;;;;6.45;4.30;;;;;;;19.01;38.40;100078.47;5133262;28;20420;-55
2022/01/02 07:10:10;;;;;;;6.20;3.60;;;;;;;19.01;38.54;100092.31;5133244;27;20050;-55
2022/01/02 07:12:36;;;;;;;5.25;4.00;;;;;;;18.99;38.82;100089.06;5133266;27;20035;-55
2022/01/02 07:15:02;;;;;;;5.78;3.97;;;;;;;19.00;38.94;100090.69;5133305;27;20058;-64
2022/01/02 07:17:27;;;;;;;6.13;3.83;;;;;;;19.00;38.94;100096.22;5133243;27;20346;-64
2022/01/02 07:19:52;;;;;;;5.78;3.80;;;;;;;19.01;39.11;100100.63;5133219;27;20324;-64
2022/01/02 07:22:18;;;;;;;6.05;3.53;;;;;;;18.99;38.87;100083.53;5133181;27;20041;-64
2022/01/02 07:24:50;;;;;;;5.20;3.60;;;;;;;19.00;39.17;100100.97;5133218;27;20043;-64
2022/01/02 07:27:16;;;;;;;5.05;3.28;;;;;;;19.00;39.09;100100.97;5133100;27;20051;-66
2022/01/02 07:29:41;;;;;;;5.32;3.65;;;;;;;19.01;39.08;100103.41;5133147;27;20047;-57
2022/01/02 07:32:06;;;;;;;5.45;3.45;;;;;;;19.02;38.86;100104.22;5133166;27;20046;-66
2022/01/02 07:34:32;;;;;;;5.32;3.60;;;;;;;19.00;38.94;100101.78;5132951;27;20516;-57
2022/01/02 07:36:57;;;;;;;5.30;3.55;;;;;;;19.00;38.90;100099.00;5132841;28;20087;-57
2022/01/02 07:39:22;;;;;;;5.28;3.40;;;;;;;19.01;38.99;100099.84;5132919;27;20112;-57
2022/01/02 07:41:48;;;;;;;5.00;3.30;;;;;;;19.02;38.89;100101.44;5132761;27;20042;-57
2022/01/02 07:44:13;;;;;;;6.40;4.20;;;;;;;19.01;38.27;100116.47;5133047;27;20494;-57
2022/01/02 07:46:39;;;;;;;5.78;3.78;;;;;;;18.99;38.29;100116.78;5132854;27;20566;-57
2022/01/02 07:49:04;;;;;;;5.60;3.80;;;;;;;18.98;39.06;100118.75;5132597;27;20075;-66
2022/01/02 07:51:30;;;;;;;6.13;4.18;;;;;;;18.98;38.49;100115.19;5132776;27;20040;-57
2022/01/02 07:53:55;;;;;;;6.35;4.40;;;;;;;18.96;38.43;100123.03;5132813;27;20046;-57
2022/01/02 07:56:21;;;;;;;6.07;4.00;;;;;;;18.96;38.57;100128.59;5132689;27;20046;-57
2022/01/02 07:58:46;;;;;;;6.10;3.90;;;;;;;19.01;38.67;100131.13;5132710;27;20131;-66
2022/01/02 08:01:12;;;;;;;5.95;4.20;;;;;;;18.99;39.14;100138.97;5132764;27;20104;-66
2022/01/02 08:03:38;;;;;;;5.20;3.63;;;;;;;18.98;39.13;100137.34;5132620;27;20122;-57
2022/01/02 08:06:03;;;;;;;5.38;3.83;;;;;;;19.01;38.95;100133.09;5132452;28;20131;-57
2022/01/02 08:08:29;;;;;;;6.15;4.00;;;;;;;18.98;38.59;100138.16;5132152;28;20584;-57
2022/01/02 08:10:54;;;;;;;6.68;4.28;;;;;;;18.99;38.30;100144.50;5132185;27;20422;-58
2022/01/02 08:13:19;;;;;;;7.20;4.63;;;;;;;18.97;38.71;100135.75;5132552;27;20122;-57
2022/01/02 08:15:48;;;;;;;6.25;4.10;;;;;;;18.96;38.61;100134.94;5132347;27;20392;-57
2022/01/02 08:18:13;;;;;;;5.38;3.78;;;;;;;18.97;38.83;100135.75;5132382;27;20058;-66
2022/01/02 08:20:45;;;;;;;6.00;3.78;;;;;;;18.98;39.04;100134.59;5132164;27;20051;-66
2022/01/02 08:23:12;;;;;;;6.07;4.10;;;;;;;18.98;39.24;100152.03;5131998;27;20047;-66
2022/01/02 08:25:37;;;;;;;4.82;3.63;;;;;;;18.98;39.11;100137.34;5131961;28;20456;-64
2022/01/02 08:28:03;;;;;;;5.55;3.85;;;;;;;19.00;38.79;100145.31;5132233;28;20502;-64
2022/01/02 08:30:28;;;;;;;4.60;3.30;;;;;;;19.16;38.61;100143.50;5131940;27;20054;-63
2022/01/02 08:32:54;;;;;;;4.72;3.45;;;;;;;19.38;38.45;100151.38;5132044;27;20039;-63
2022/01/02 08:35:19;;;;;;;4.75;3.25;;;;;;;19.34;38.79;100160.72;5131957;27;20035;-64
2022/01/02 08:37:45;;;;;;;4.88;3.55;;;;;;;19.31;39.13;100158.66;5132028;27;20047;-64
2022/01/02 08:40:11;;;;;;;5.07;3.38;;;;;;;19.60;37.64;100163.19;5131974;27;20403;-55
2022/01/02 08:42:36;;;;;;;4.78;3.13;;;;;;;21.00;35.25;100160.47;5131914;27;20043;-55
2022/01/02 08:45:02;;;;;;;4.38;3.10;;;;;;;20.73;35.71;100164.94;5130953;27;20039;-55
2022/01/02 08:47:27;;;;;;;4.72;3.42;;;;;;;20.40;36.29;100179.06;5131812;27;20035;-55
2022/01/02 08:49:53;;;;;;;4.78;3.50;;;;;;;20.13;37.03;100175.91;5131669;27;20130;-55
2022/01/02 08:52:19;;;;;;;5.30;3.38;;;;;;;19.94;37.31;100171.00;5131736;27;20066;-55
2022/01/02 08:54:44;;;;;;;4.80;3.47;;;;;;;19.81;37.86;100185.25;5131781;27;20043;-55
2022/01/02 08:57:10;;;;;;;4.93;3.30;;;;;;;19.66;38.36;100195.09;5131841;27;20050;-55
2022/01/02 08:59:35;;;;;;;4.90;3.35;;;;;;;19.56;38.31;100196.31;5131498;27;20035;-64
2022/01/02 09:02:01;;;;;;;4.97;3.35;;;;;;;19.45;38.45;100195.97;5131749;27;20452;-55
2022/01/02 09:04:26;;;;;;;5.20;3.90;;;;;;;19.43;38.30;100206.63;5131934;27;20445;-55
2022/01/02 09:06:52;;;;;;;5.72;3.85;;;;;;;19.35;38.54;100210.28;5129627;28;20468;-55
2022/01/02 09:09:17;;;;;;;5.13;3.28;;;;;;;19.34;38.66;100227.28;5131519;27;20452;-55
2022/01/02 09:11:43;;;;;;;5.30;3.38;;;;;;;19.28;39.17;100225.88;5131232;27;20039;-55
2022/01/02 09:14:08;;;;;;;4.10;3.10;;;;;;;19.27;38.84;100227.06;5131374;27;20716;-55
2022/01/02 09:16:34;;;;;;;5.25;3.95;;;;;;;19.22;38.89;100220.59;5131153;28;20046;-55
2022/01/02 09:18:59;;;;;;;5.45;3.95;;;;;;;19.22;38.99;100222.56;5129648;28;20050;-56
2022/01/02 09:21:25;;;;;;;4.57;3.38;;;;;;;19.19;39.27;100209.38;5129909;28;20506;-55
2022/01/02 09:23:50;;;;;;;5.68;3.90;;;;;;;19.22;39.33;100220.59;5131427;27;20091;-55
2022/01/02 09:26:16;;;;;;;5.18;3.65;;;;;;;19.18;39.49;100208.56;5131187;27;20039;-64
2022/01/02 09:28:41;;;;;;;5.65;4.00;;;;;;;19.16;39.33;100210.06;5131035;27;20077;-55
2022/01/02 09:31:07;;;;;;;5.35;3.80;;;;;;;19.15;39.30;100202.91;5131177;28;20466;-64
2022/01/02 09:33:33;;;;;;;5.20;3.78;;;;;;;19.13;39.42;100211.53;5131013;27;20521;-64
2022/01/02 09:35:58;;;;;;;5.63;3.88;;;;;;;19.13;39.35;100208.78;5130935;27;20043;-55
2022/01/02 09:38:24;;;;;;;6.32;4.28;;;;;;;19.10;39.43;100220.56;5131019;27;20036;-55
2022/01/02 09:40:50;;;;;;;4.82;3.65;;;;;;;19.11;39.48;100219.41;5130995;27;20043;-55
2022/01/02 09:43:17;;;;;;;5.82;4.03;;;;;;;19.10;39.66;100195.59;5130878;27;20050;-55
2022/01/02 09:45:46;;;;;;;5.15;3.72;;;;;;;19.08;39.26;100197.13;5130866;27;20050;-55
2022/01/02 09:48:11;;;;;;;6.93;4.45;;;;;;;19.11;39.52;100202.75;5129554;28;20452;-55
2022/01/02 09:50:39;;;;;;;6.00;3.95;;;;;;;19.10;39.39;100192.84;5130830;27;20511;-55
2022/01/02 09:53:05;;;;;;;6.20;3.97;;;;;;;19.10;39.42;100183.72;5130874;27;20418;-55
2022/01/02 09:55:31;;;;;;;5.47;4.22;;;;;;;19.10;39.54;100178.16;5130960;27;20043;-55
2022/01/02 09:58:00;;;;;;;5.55;4.13;;;;;;;19.10;39.42;100192.84;5129672;27;20636;-55
2022/01/02 10:00:27;;;;;;;6.15;4.03;;;;;;;19.11;39.59;100185.31;5130832;27;20043;-55
2022/01/02 10:03:11;;;;;;;5.55;3.78;;;;;;;19.09;39.65;100190.41;5129473;28;20043;-55
2022/01/02 10:05:54;;;;;;;6.65;4.07;;;;;;;19.09;39.66;100194.00;5130806;27;20043;-55
2022/01/02 10:08:30;;;;;;;;;;;;;;;19.12;39.97;100200.81;5131197;27;20142;-55
2022/01/02 10:11:11;;;;;;;4.95;3.60;;;;;;;19.09;40.44;100207.84;5130752;27;20375;-55
2022/01/02 10:13:48;;;;;;;5.20;3.90;;;;;;;19.10;40.21;100201.16;5130662;27;20071;-55
2022/01/02 10:16:28;;;;;;;5.63;3.95;;;;;;;19.08;39.72;100202.66;5130639;27;20070;-55
2022/01/02 10:18:55;;;;;;;5.18;3.85;;;;;;;19.06;40.09;100188.31;5130561;27;20047;-55
2022/01/02 10:21:38;;;;;;;5.40;3.92;;;;;;;19.06;40.36;100177.22;5130569;27;20051;-55
2022/01/02 10:24:11;;;;;;;4.93;3.92;;;;;;;19.08;39.91;100192.38;5130641;27;20039;-55
2022/01/02 10:26:36;;;;;;;5.20;3.78;;;;;;;19.08;40.28;100191.56;5130939;27;20515;-55
2022/01/02 10:29:13;;;;;;;5.07;3.85;;;;;;;19.05;39.91;100190.28;5130513;27;20632;-55
2022/01/02 10:31:39;;;;;;;5.38;3.95;;;;;;;19.06;40.04;100200.22;5130486;27;20092;-63
2022/01/02 10:34:05;;;;;;;5.53;3.83;;;;;;;19.08;40.36;100197.91;5130494;27;20118;-64
2022/01/02 10:36:36;;;;;;;5.85;3.88;;;;;;;19.09;40.14;100198.72;5130239;27;20459;-63
2022/01/02 10:39:06;;;;;;;5.40;4.22;;;;;;;19.09;40.14;100193.19;5129943;27;20054;-64
2022/01/02 10:41:34;;;;;;;5.50;3.80;;;;;;;19.08;40.48;100184.06;5130284;27;20446;-64
2022/01/02 10:44:19;;;;;;;6.20;4.40;;;;;;;19.08;40.48;100172.97;5130179;27;20507;-64
2022/01/02 10:47:04;;;;;;;5.75;4.15;;;;;;;19.09;40.39;100180.13;5130125;27;20495;-64
2022/01/02 10:49:54;;;;;;;5.55;3.85;;;;;;;19.08;40.70;100180.47;5129815;27;20134;-64
2022/01/02 10:52:37;;;;;;;6.75;4.40;;;;;;;19.10;40.61;100167.06;5130152;27;20445;-64
2022/01/02 10:55:23;;;;;;;5.82;3.88;;;;;;;19.08;40.51;100159.09;5130136;27;20122;-55
2022/01/02 10:57:51;;;;;;;6.22;4.35;;;;;;;19.10;40.06;100159.56;5129887;28;20043;-55
2022/01/02 11:00:21;;;;;;;5.78;3.80;;;;;;;19.10;40.43;100145.69;5130005;27;20054;-55
2022/01/02 11:02:47;;;;;;;5.22;3.83;;;;;;;19.11;40.49;100144.53;5129803;27;20407;-55
2022/01/02 11:05:15;;;;;;;6.03;4.00;;;;;;;19.11;40.28;100149.28;5129961;27;20252;-55
2022/01/02 11:07:41;;;;;;;6.40;4.50;;;;;;;19.12;40.10;100148.91;5129844;27;20043;-55
2022/01/02 11:10:11;;;;;;;5.40;3.80;;;;;;;19.11;40.82;100129.88;5132724;27;20039;-55
2022/01/02 11:12:38;;;;;;;5.80;3.88;;;;;;;19.12;40.85;100142.56;5133177;27;20050;-55
2022/01/02 11:15:06;;;;;;;5.30;3.78;;;;;;;19.12;40.48;100137.84;5133370;27;20051;-55
2022/01/02 11:17:35;;;;;;;5.90;3.70;;;;;;;19.13;40.86;100150.53;5133208;27;20519;-55
2022/01/02 11:20:03;;;;;;;5.63;3.78;;;;;;;19.11;40.52;100136.22;5133142;27;20120;-55
2022/01/02 11:22:52;;;;;;;5.55;4.28;;;;;;;19.12;40.78;100110.09;5131843;28;20540;-55
2022/01/02 11:25:23;;;;;;;6.05;3.88;;;;;;;19.08;40.08;100109.19;5132969;27;20518;-55
2022/01/02 11:27:58;;;;;;;6.03;4.15;;;;;;;19.09;40.14;100102.47;5133531;27;20621;-64
2022/01/02 11:30:33;;;;;;;5.75;4.20;;;;;;;19.09;40.32;100108.03;5133079;27;20051;-64
2022/01/02 11:33:15;;;;;;;6.60;3.75;;;;;;;19.09;40.87;100104.44;5133012;27;20050;-55
2022/01/02 11:35:43;;;;;;;4.70;3.67;;;;;;;19.09;40.79;100088.63;5133158;27;20081;-55